Erica Xii — ZCDZ4 — position and weather

sailwx.info

Track history (hours):
 
Tides and Currents Weather Stations Pressure Air Temp Water Temp Dewpoint Dewpoint Depression Visibility Wind Speed Wind Dir Waves Ship Positions

Erica Xii

Last reported at 2014-Dec-17 21:05 UTC. Time now 2014-Dec-18 13:31 UTC.
Position N 17°01' W 061°46'.

Length 53 m; draft 4.8 m.

Type: Sailing vessel. MMSI: 310570000.

Date/timePositionNaut miles runAvg speedWind from/ knotsBaromVisibWave heightAir tempDewpointWater temp
2014-Dec-17 21:05N 17°01' W 061°46'0 0.0
2014-Dec-17 20:32N 17°01' W 061°46'0 0.0
2014-Dec-17 19:32N 17°01' W 061°46'0 0.0
2014-Dec-17 18:32N 17°01' W 061°46'0 0.0
2014-Dec-17 17:32N 17°01' W 061°46'0 0.0
2014-Dec-17 16:32N 17°01' W 061°46'0 0.0
2014-Dec-17 15:32N 17°01' W 061°46'0 0.0
2014-Dec-17 14:32N 17°01' W 061°46'0 0.0
2014-Dec-17 13:32N 17°01' W 061°46'0 0.0
2014-Dec-17 12:32N 17°01' W 061°46'0 0.0
2014-Dec-17 11:32N 17°01' W 061°46'0 0.0
2014-Dec-17 10:32N 17°01' W 061°46'0 0.0
2014-Dec-17 09:32N 17°01' W 061°46'0 0.0
2014-Dec-17 06:32N 17°01' W 061°46'0 0.0
2014-Dec-17 05:32N 17°01' W 061°46'0 0.0
2014-Dec-17 04:32N 17°01' W 061°46'0 0.0
2014-Dec-17 03:32N 17°01' W 061°46'0 0.0
2014-Dec-17 02:32N 17°01' W 061°46'0 0.0
2014-Dec-17 01:32N 17°01' W 061°46'0 0.0
2014-Dec-17 00:32N 17°01' W 061°46'0 0.0
2014-Dec-16 23:32N 17°01' W 061°46'0 0.0
2014-Dec-16 22:32N 17°01' W 061°46'0 0.0
2014-Dec-16 21:32N 17°01' W 061°46'0 0.0
2014-Dec-16 11:26N 17°01' W 061°46'0 0.0
2014-Dec-16 10:32N 17°01' W 061°46'0 0.0
2014-Dec-16 09:32N 17°01' W 061°46'0 0.0
2014-Dec-16 08:32N 17°01' W 061°46'0 0.0
2014-Dec-16 07:32N 17°01' W 061°46'0 0.0
2014-Dec-16 06:32N 17°01' W 061°46'0 0.0
2014-Dec-16 05:23N 17°01' W 061°46'0 0.0
2014-Dec-16 04:23N 17°01' W 061°46'0 0.0
2014-Dec-16 03:32N 17°01' W 061°46'0 0.0
2014-Dec-16 02:32N 17°01' W 061°46'0 0.0
2014-Dec-16 01:05N 17°01' W 061°46'0 0.0
2014-Dec-15 23:32N 17°01' W 061°46'0 0.0
2014-Dec-15 22:32N 17°01' W 061°46'0 0.0
2014-Dec-15 21:32N 17°01' W 061°46'0 0.0
2014-Dec-15 20:32N 17°01' W 061°46'0 0.0
2014-Dec-15 19:32N 17°01' W 061°46'0 0.0
2014-Dec-15 18:32N 17°01' W 061°46'0 0.0
2014-Dec-15 17:32N 17°01' W 061°46'0 0.0
2014-Dec-15 16:32N 17°01' W 061°46'0 0.0
2014-Dec-15 15:32N 17°01' W 061°46'0 0.0
2014-Dec-15 14:32N 17°01' W 061°46'0 0.0
2014-Dec-15 13:32N 17°01' W 061°46'0 0.0
2014-Dec-15 12:32N 17°01' W 061°46'0 0.0
2014-Dec-15 11:32N 17°01' W 061°46'0 0.0
2014-Dec-15 10:32N 17°01' W 061°46'0 0.0
2014-Dec-15 09:32N 17°01' W 061°46'0 0.0
2014-Dec-15 08:32N 17°01' W 061°46'0 0.0
2014-Dec-15 07:32N 17°01' W 061°46'0 0.0
2014-Dec-15 06:32N 17°01' W 061°46'0 0.0
2014-Dec-15 05:32N 17°01' W 061°46'0 0.0
2014-Dec-15 04:32N 17°01' W 061°46'0 0.0
2014-Dec-15 03:32N 17°01' W 061°46'0 0.0
2014-Dec-15 02:32N 17°01' W 061°46'0 0.0
2014-Dec-15 01:32N 17°01' W 061°46'0 0.0
2014-Dec-15 00:32N 17°01' W 061°46'0 0.0
2014-Dec-14 23:32N 17°01' W 061°46'0 0.0
2014-Dec-14 22:32N 17°01' W 061°46'0 0.0
2014-Dec-14 21:32N 17°01' W 061°46'0 0.0
2014-Dec-14 20:32N 17°01' W 061°46'0 0.0
2014-Dec-14 19:32N 17°01' W 061°46'0 0.0
2014-Dec-14 18:32N 17°01' W 061°46'0 0.0
2014-Dec-14 17:32N 17°01' W 061°46'0 0.0
2014-Dec-14 16:32N 17°01' W 061°46'0 0.0
2014-Dec-14 15:32N 17°01' W 061°46'1 0.7
2014-Dec-14 14:32N 17°01' W 061°47'0 0.0
2014-Dec-14 13:32N 17°01' W 061°47'0 0.0
2014-Dec-14 12:32N 17°01' W 061°47'2 2.0
2014-Dec-14 11:33N 16°59' W 061°48'9 8.5
2014-Dec-14 10:33N 16°59' W 061°57'  
Track history (hours):
 
Tides and Currents Weather Stations Pressure Air Temp Water Temp Dewpoint Dewpoint Depression Visibility Wind Speed Wind Dir Waves Ship Positions

Erica Xii

Last reported at 2014-Dec-17 21:05 UTC. Time now 2014-Dec-18 13:31 UTC.
Position N 17°01' W 061°46'.

Length 53 m; draft 4.8 m.

Type: Sailing vessel. MMSI: 310570000.

Date/timePositionNaut miles runAvg speedWind from/ knotsBaromVisibWave heightAir tempDewpointWater temp
2014-Dec-17 21:05N 17°01' W 061°46'0 0.0
2014-Dec-17 20:32N 17°01' W 061°46'0 0.0
2014-Dec-17 19:32N 17°01' W 061°46'0 0.0
2014-Dec-17 18:32N 17°01' W 061°46'0 0.0
2014-Dec-17 17:32N 17°01' W 061°46'0 0.0
2014-Dec-17 16:32N 17°01' W 061°46'0 0.0
2014-Dec-17 15:32N 17°01' W 061°46'0 0.0
2014-Dec-17 14:32N 17°01' W 061°46'0 0.0
2014-Dec-17 13:32N 17°01' W 061°46'0 0.0
2014-Dec-17 12:32N 17°01' W 061°46'0 0.0
2014-Dec-17 11:32N 17°01' W 061°46'0 0.0
2014-Dec-17 10:32N 17°01' W 061°46'0 0.0
2014-Dec-17 09:32N 17°01' W 061°46'0 0.0
2014-Dec-17 06:32N 17°01' W 061°46'0 0.0
2014-Dec-17 05:32N 17°01' W 061°46'0 0.0
2014-Dec-17 04:32N 17°01' W 061°46'0 0.0
2014-Dec-17 03:32N 17°01' W 061°46'0 0.0
2014-Dec-17 02:32N 17°01' W 061°46'0 0.0
2014-Dec-17 01:32N 17°01' W 061°46'0 0.0
2014-Dec-17 00:32N 17°01' W 061°46'0 0.0
2014-Dec-16 23:32N 17°01' W 061°46'0 0.0
2014-Dec-16 22:32N 17°01' W 061°46'0 0.0
2014-Dec-16 21:32N 17°01' W 061°46'0 0.0
2014-Dec-16 11:26N 17°01' W 061°46'0 0.0
2014-Dec-16 10:32N 17°01' W 061°46'0 0.0
2014-Dec-16 09:32N 17°01' W 061°46'0 0.0
2014-Dec-16 08:32N 17°01' W 061°46'0 0.0
2014-Dec-16 07:32N 17°01' W 061°46'0 0.0
2014-Dec-16 06:32N 17°01' W 061°46'0 0.0
2014-Dec-16 05:23N 17°01' W 061°46'0 0.0
2014-Dec-16 04:23N 17°01' W 061°46'0 0.0
2014-Dec-16 03:32N 17°01' W 061°46'0 0.0
2014-Dec-16 02:32N 17°01' W 061°46'0 0.0
2014-Dec-16 01:05N 17°01' W 061°46'0 0.0
2014-Dec-15 23:32N 17°01' W 061°46'0 0.0
2014-Dec-15 22:32N 17°01' W 061°46'0 0.0
2014-Dec-15 21:32N 17°01' W 061°46'0 0.0
2014-Dec-15 20:32N 17°01' W 061°46'0 0.0
2014-Dec-15 19:32N 17°01' W 061°46'0 0.0
2014-Dec-15 18:32N 17°01' W 061°46'0 0.0
2014-Dec-15 17:32N 17°01' W 061°46'0 0.0
2014-Dec-15 16:32N 17°01' W 061°46'0 0.0
2014-Dec-15 15:32N 17°01' W 061°46'0 0.0
2014-Dec-15 14:32N 17°01' W 061°46'0 0.0
2014-Dec-15 13:32N 17°01' W 061°46'0 0.0
2014-Dec-15 12:32N 17°01' W 061°46'0 0.0
2014-Dec-15 11:32N 17°01' W 061°46'0 0.0
2014-Dec-15 10:32N 17°01' W 061°46'0 0.0
2014-Dec-15 09:32N 17°01' W 061°46'0 0.0
2014-Dec-15 08:32N 17°01' W 061°46'0 0.0
2014-Dec-15 07:32N 17°01' W 061°46'0 0.0
2014-Dec-15 06:32N 17°01' W 061°46'0 0.0
2014-Dec-15 05:32N 17°01' W 061°46'0 0.0
2014-Dec-15 04:32N 17°01' W 061°46'0 0.0
2014-Dec-15 03:32N 17°01' W 061°46'0 0.0
2014-Dec-15 02:32N 17°01' W 061°46'0 0.0
2014-Dec-15 01:32N 17°01' W 061°46'0 0.0
2014-Dec-15 00:32N 17°01' W 061°46'0 0.0
2014-Dec-14 23:32N 17°01' W 061°46'0 0.0
2014-Dec-14 22:32N 17°01' W 061°46'0 0.0
2014-Dec-14 21:32N 17°01' W 061°46'0 0.0
2014-Dec-14 20:32N 17°01' W 061°46'0 0.0
2014-Dec-14 19:32N 17°01' W 061°46'0 0.0
2014-Dec-14 18:32N 17°01' W 061°46'0 0.0
2014-Dec-14 17:32N 17°01' W 061°46'0 0.0
2014-Dec-14 16:32N 17°01' W 061°46'0 0.0
2014-Dec-14 15:32N 17°01' W 061°46'1 0.7
2014-Dec-14 14:32N 17°01' W 061°47'0 0.0
2014-Dec-14 13:32N 17°01' W 061°47'0 0.0
2014-Dec-14 12:32N 17°01' W 061°47'2 2.0
2014-Dec-14 11:33N 16°59' W 061°48'9 8.5
2014-Dec-14 10:33N 16°59' W 061°57'  

Dump ship's entire track history